Time;durP1;ratioP1;P1;durP2;ratioP2;P2;SDS_P1;SDS_P2;PMS_P1;PMS_P2;Temp;Humidity;BMP_temperature;BMP_pressure;BME280_temperature;BME280_humidity;BME280_pressure;Samples;Min_cycle;Max_cycle;Signal;HPM_P1;HPM_P2
2021/03/03 00:01:33;;;;;;;6.10;5.50;;;;;;;4.15;78.17;101907.91;5046312;28;20261;-76
2021/03/03 00:03:59;;;;;;;5.70;4.83;;;;;;;4.09;78.61;101903.44;5050561;28;20206;-78
2021/03/03 00:06:25;;;;;;;5.47;4.87;;;;;;;4.11;78.58;101903.50;5046112;28;20203;-78
2021/03/03 00:08:51;;;;;;;4.87;4.37;;;;;;;4.16;78.00;101904.50;5050139;28;20726;-76
2021/03/03 00:11:17;;;;;;;5.73;5.07;;;;;;;4.18;78.04;101908.91;5045672;28;20238;-76
2021/03/03 00:13:43;;;;;;;7.43;6.73;;;;;;;4.23;77.56;101909.03;5050662;28;20201;-76
2021/03/03 00:16:09;;;;;;;7.07;6.47;;;;;;;4.25;77.94;101909.97;5036060;28;20549;-76
2021/03/03 00:18:35;;;;;;;6.63;5.97;;;;;;;4.25;77.22;101909.09;5033704;28;20240;-76
2021/03/03 00:21:00;;;;;;;8.07;7.27;;;;;;;4.30;77.66;101907.50;5043795;28;20692;-76
2021/03/03 00:23:27;;;;;;;7.20;6.60;;;;;;;4.23;77.52;101909.03;5033016;28;20227;-76
2021/03/03 00:25:53;;;;;;;8.07;6.20;;;;;;;4.18;77.54;101905.41;5044754;28;20206;-76
2021/03/03 00:28:19;;;;;;;6.23;5.67;;;;;;;4.15;76.92;101900.16;5051658;28;20206;-78
2021/03/03 00:30:45;;;;;;;7.00;6.40;;;;;;;4.08;77.72;101898.22;5042649;28;20214;-78
2021/03/03 00:33:11;;;;;;;5.67;5.17;;;;;;;4.02;77.47;101896.31;5055538;28;20589;-78
2021/03/03 00:35:36;;;;;;;7.90;7.20;;;;;;;4.04;77.93;101893.78;5043886;28;20302;-78
2021/03/03 00:38:02;;;;;;;8.47;7.07;;;;;;;3.97;77.54;101896.19;5055135;28;20234;-78
2021/03/03 00:40:29;;;;;;;7.63;6.93;;;;;;;3.98;77.73;101889.28;5042752;28;20293;-78
2021/03/03 00:42:55;;;;;;;8.43;7.67;;;;;;;3.93;78.18;101891.75;5053701;28;20768;-78
2021/03/03 00:45:21;;;;;;;7.23;6.53;;;;;;;3.96;78.02;101890.94;5041774;28;20213;-78
2021/03/03 00:47:46;;;;;;;6.80;5.80;;;;;;;3.97;78.02;101883.25;5054106;28;20341;-78
2021/03/03 00:50:13;;;;;;;5.03;4.60;;;;;;;3.96;77.86;101885.78;5045523;28;20229;-77
2021/03/03 00:52:39;;;;;;;4.63;4.17;;;;;;;3.95;77.96;101876.28;5036874;28;20731;-77
2021/03/03 00:55:06;;;;;;;4.60;4.20;;;;;;;4.00;77.88;101879.88;5042342;28;20207;-78
2021/03/03 00:57:33;;;;;;;5.13;4.63;;;;;;;3.98;77.92;101876.38;5035089;28;20212;-78
2021/03/03 00:59:59;;;;;;;6.10;4.87;;;;;;;4.08;77.49;101872.38;5037159;28;20228;-78
2021/03/03 01:02:25;;;;;;;4.93;4.53;;;;;;;3.95;77.69;101866.84;5039857;28;20228;-78
2021/03/03 01:04:51;;;;;;;4.73;4.33;;;;;;;4.00;77.37;101851.47;5042238;28;20238;-78
2021/03/03 01:07:17;;;;;;;4.70;4.23;;;;;;;4.01;77.63;101854.94;5048953;28;20878;-77
2021/03/03 01:09:43;;;;;;;5.50;4.20;;;;;;;4.00;77.83;101846.31;5048750;28;20231;-77
2021/03/03 01:12:09;;;;;;;4.93;4.53;;;;;;;4.03;77.44;101849.00;5047195;28;20213;-77
2021/03/03 01:14:35;;;;;;;5.40;4.67;;;;;;;4.08;76.32;101849.13;5050349;28;20206;-78
2021/03/03 01:17:01;;;;;;;4.80;4.40;;;;;;;3.99;77.45;101841.97;5047289;28;20199;-77
2021/03/03 01:19:27;;;;;;;5.90;5.30;;;;;;;3.90;77.61;101845.13;5050663;28;20268;-78
2021/03/03 01:21:53;;;;;;;5.67;5.17;;;;;;;3.88;77.59;101843.34;5029611;28;20222;-77
2021/03/03 01:24:19;;;;;;;7.33;5.20;;;;;;;3.84;77.79;101841.50;5038807;28;20208;-78
2021/03/03 01:26:44;;;;;;;5.10;4.60;;;;;;;3.77;77.53;101843.88;5034380;28;20238;-77
2021/03/03 01:29:10;;;;;;;5.83;5.27;;;;;;;3.70;78.82;101841.06;5037263;28;20317;-78
2021/03/03 01:31:37;;;;;;;10.20;9.20;;;;;;;3.69;79.20;101837.59;5044101;28;20267;-78
2021/03/03 01:34:03;;;;;;;12.10;11.00;;;;;;;3.57;79.88;101834.66;5049513;28;20202;-77
2021/03/03 01:36:29;;;;;;;11.00;8.37;;;;;;;3.46;80.15;101846.31;5045498;28;20230;-78
2021/03/03 01:38:55;;;;;;;7.63;6.93;;;;;;;3.23;80.72;101838.69;5049474;28;20226;-77
2021/03/03 01:41:21;;;;;;;12.47;11.37;;;;;;;3.14;81.26;101838.38;5045060;28;20209;-77
2021/03/03 01:43:47;;;;;;;12.23;11.03;;;;;;;3.04;81.72;101834.59;5048621;28;20233;-77
2021/03/03 01:46:13;;;;;;;11.80;10.70;;;;;;;2.98;82.16;101827.53;5045096;28;20247;-77
2021/03/03 01:48:40;;;;;;;11.20;10.13;;;;;;;3.01;82.09;101831.91;5041815;28;20246;-78
2021/03/03 01:51:07;;;;;;;10.70;9.67;;;;;;;3.06;82.42;101827.78;5041998;28;20201;-77
2021/03/03 01:53:33;;;;;;;11.53;10.43;;;;;;;3.16;82.24;101823.81;5031518;28;20213;-77
2021/03/03 01:55:59;;;;;;;10.83;9.83;;;;;;;3.26;81.02;101817.28;5044939;28;20201;-77
2021/03/03 01:58:24;;;;;;;10.50;8.73;;;;;;;3.31;80.87;101826.03;5050569;28;20767;-77
2021/03/03 02:00:51;;;;;;;9.83;8.87;;;;;;;3.30;80.07;101813.97;5043447;28;20579;-77
2021/03/03 02:03:17;;;;;;;9.83;8.93;;;;;;;3.26;80.72;101809.53;5041309;28;20234;-78
2021/03/03 02:05:44;;;;;;;9.90;8.87;;;;;;;3.29;81.04;101804.44;5041938;28;20210;-77
2021/03/03 02:08:16;;;;;;;9.47;8.47;;;;;;;3.41;80.57;101803.97;5053193;28;20366;-77
2021/03/03 02:10:47;;;;;;;9.07;7.67;;;;;;;3.49;80.46;101803.41;5040220;28;20207;-78
2021/03/03 02:13:20;;;;;;;9.03;8.23;;;;;;;3.57;79.82;101799.38;5052356;28;20209;-77
2021/03/03 02:15:49;;;;;;;10.17;8.53;;;;;;;3.69;79.95;101795.44;5042324;28;20268;-77
2021/03/03 02:18:16;;;;;;;8.10;7.27;;;;;;;3.76;79.25;101794.75;5052090;28;20205;-77
2021/03/03 02:20:53;;;;;;;8.33;7.63;;;;;;;3.82;78.40;101802.69;5040708;28;20210;-77
2021/03/03 02:23:27;;;;;;;9.33;8.43;;;;;;;3.83;78.30;101801.03;5026428;28;20218;-77
2021/03/03 02:25:55;;;;;;;8.93;8.13;;;;;;;3.83;78.69;101796.72;5043923;28;20203;-78
2021/03/03 02:28:21;;;;;;;9.67;8.57;;;;;;;3.76;78.78;101787.03;5050316;28;20690;-78
2021/03/03 02:30:47;;;;;;;9.97;8.97;;;;;;;3.69;79.15;101791.13;5041751;28;20210;-78
2021/03/03 02:33:21;;;;;;;9.27;8.53;;;;;;;3.78;78.78;101793.97;5051405;28;20210;-78
2021/03/03 02:35:47;;;;;;;9.20;8.40;;;;;;;3.88;79.26;101787.38;5041898;28;20210;-78
2021/03/03 02:38:14;;;;;;;8.13;7.33;;;;;;;3.94;77.74;101789.28;5052120;28;20203;-78
2021/03/03 02:40:41;;;;;;;9.80;8.80;;;;;;;3.90;77.88;101782.28;5039310;28;20657;-78
2021/03/03 02:43:12;;;;;;;9.03;8.20;;;;;;;3.78;77.96;101782.78;5032162;28;20230;-77
2021/03/03 02:45:39;;;;;;;10.10;9.17;;;;;;;3.65;78.53;101786.69;5040358;28;20228;-78
2021/03/03 02:48:07;;;;;;;8.57;7.87;;;;;;;3.67;78.19;101779.00;5052651;28;20696;-77
2021/03/03 02:50:33;;;;;;;8.13;7.33;;;;;;;3.65;78.42;101780.63;5040211;28;20209;-77
2021/03/03 02:52:59;;;;;;;9.23;7.23;;;;;;;3.62;78.31;101778.84;5030326;28;20203;-77
2021/03/03 02:55:28;;;;;;;8.20;7.37;;;;;;;3.61;78.44;101774.53;5039994;28;20290;-78
2021/03/03 02:57:54;;;;;;;8.03;7.27;;;;;;;3.60;78.61;101779.63;5017661;28;20209;-78
2021/03/03 03:00:23;;;;;;;8.57;7.63;;;;;;;3.56;78.70;101776.94;5037184;28;20239;-78
2021/03/03 03:02:52;;;;;;;9.47;8.50;;;;;;;3.58;79.18;101775.28;5051408;28;20222;-79
2021/03/03 03:05:20;;;;;;;9.10;8.20;;;;;;;3.54;79.32;101781.19;5045487;28;20586;-77
2021/03/03 03:07:49;;;;;;;8.60;7.80;;;;;;;3.53;78.72;101778.56;5055625;28;20204;-79
2021/03/03 03:10:17;;;;;;;8.17;7.43;;;;;;;3.51;78.65;101782.81;5047021;28;20693;-78
2021/03/03 03:12:48;;;;;;;8.80;7.83;;;;;;;3.48;79.68;101777.53;5055179;28;20204;-79
2021/03/03 03:15:17;;;;;;;10.27;7.40;;;;;;;3.44;79.84;101786.88;5046966;28;20203;-79
2021/03/03 03:17:46;;;;;;;8.10;7.37;;;;;;;3.47;79.70;101783.53;5021751;28;20210;-79
2021/03/03 03:20:15;;;;;;;8.77;7.80;;;;;;;3.49;79.97;101785.34;5040527;28;20223;-79
2021/03/03 03:22:42;;;;;;;8.13;7.27;;;;;;;3.42;80.07;101782.50;5038754;28;20223;-78
2021/03/03 03:25:09;;;;;;;9.53;7.03;;;;;;;3.42;79.11;101785.09;5043937;28;20740;-79
2021/03/03 03:27:36;;;;;;;8.00;7.20;;;;;;;3.31;80.68;101785.63;5053685;28;20341;-78
2021/03/03 03:30:04;;;;;;;8.20;7.50;;;;;;;3.29;81.39;101787.28;5048434;28;20226;-79
2021/03/03 03:32:30;;;;;;;8.00;7.20;;;;;;;3.35;82.34;101789.16;5052864;28;20194;-78
2021/03/03 03:34:58;;;;;;;9.23;8.33;;;;;;;3.38;82.25;101787.56;5049680;28;20198;-77
2021/03/03 03:37:27;;;;;;;9.13;8.23;;;;;;;3.43;83.55;101786.84;5035101;28;20220;-78
2021/03/03 03:39:54;;;;;;;11.20;8.23;;;;;;;3.51;82.50;101783.69;5043183;28;20225;-78
2021/03/03 03:42:21;;;;;;;9.93;7.80;;;;;;;3.60;82.72;101787.38;5051550;28;20221;-78
2021/03/03 03:44:48;;;;;;;8.53;7.73;;;;;;;3.60;81.92;101785.66;5050071;28;20209;-78
2021/03/03 03:47:16;;;;;;;7.43;6.73;;;;;;;3.68;81.61;101781.63;5050481;28;20200;-78
2021/03/03 03:49:44;;;;;;;8.30;6.60;;;;;;;3.63;80.49;101795.19;5050780;28;20230;-79
2021/03/03 03:52:13;;;;;;;7.00;6.37;;;;;;;3.60;80.60;101790.84;5038417;28;20591;-77
2021/03/03 03:54:39;;;;;;;9.23;7.10;;;;;;;3.58;80.38;101782.16;5043438;28;20226;-79
2021/03/03 03:57:05;;;;;;;7.07;6.40;;;;;;;3.57;80.77;101786.47;5039612;28;20237;-78
2021/03/03 03:59:33;;;;;;;9.03;7.13;;;;;;;3.54;81.07;101782.91;5042681;28;20228;-78
2021/03/03 04:01:59;;;;;;;8.23;6.90;;;;;;;3.52;80.80;101780.25;5040185;28;20201;-79
2021/03/03 04:04:25;;;;;;;7.10;6.40;;;;;;;3.50;80.19;101783.63;5051513;28;20584;-78
2021/03/03 04:06:50;;;;;;;7.80;7.00;;;;;;;3.46;80.29;101789.53;5047861;28;20244;-78
2021/03/03 04:09:17;;;;;;;9.23;7.37;;;;;;;3.43;80.66;101782.56;5052053;28;20256;-78
2021/03/03 04:11:46;;;;;;;8.03;7.33;;;;;;;3.40;80.45;101779.00;5047903;28;20202;-79
2021/03/03 04:14:12;;;;;;;7.83;7.13;;;;;;;3.38;80.00;101776.38;5051840;28;20559;-78
2021/03/03 04:16:41;;;;;;;8.00;7.20;;;;;;;3.37;80.02;101777.22;5047450;28;20239;-79
2021/03/03 04:19:07;;;;;;;8.00;7.30;;;;;;;3.40;79.99;101777.28;5030355;28;20230;-78
2021/03/03 04:21:33;;;;;;;9.23;8.30;;;;;;;3.38;79.67;101781.53;5040591;28;20207;-78
2021/03/03 04:23:59;;;;;;;8.30;7.50;;;;;;;3.30;79.98;101770.09;5038038;28;20244;-78
2021/03/03 04:26:25;;;;;;;8.87;7.97;;;;;;;3.17;80.61;101777.44;5047475;28;20281;-78
2021/03/03 04:28:51;;;;;;;8.77;7.70;;;;;;;3.14;81.56;101773.88;5051271;28;20241;-77
2021/03/03 04:31:17;;;;;;;8.63;7.73;;;;;;;3.22;81.00;101771.56;5047199;28;20617;-78
2021/03/03 04:33:43;;;;;;;8.53;6.97;;;;;;;3.24;81.43;101765.59;5051320;28;20225;-79
2021/03/03 04:36:09;;;;;;;8.13;7.07;;;;;;;3.30;81.49;101767.50;5047361;28;20898;-77
2021/03/03 04:38:35;;;;;;;7.67;6.87;;;;;;;3.26;81.66;101763.94;5035605;28;20229;-79
2021/03/03 04:41:01;;;;;;;8.73;7.50;;;;;;;3.24;80.48;101764.75;5047081;28;20686;-79
2021/03/03 04:43:27;;;;;;;7.50;6.70;;;;;;;3.28;81.22;101759.72;5052573;28;20223;-78
2021/03/03 04:45:53;;;;;;;7.80;7.00;;;;;;;3.33;80.67;101762.44;5045925;28;20253;-79
2021/03/03 04:48:19;;;;;;;8.73;7.87;;;;;;;3.34;82.35;101759.91;5053859;28;20297;-79
2021/03/03 04:50:45;;;;;;;8.87;8.00;;;;;;;3.31;82.67;101749.50;5043759;28;20292;-79
2021/03/03 04:53:13;;;;;;;7.60;6.90;;;;;;;3.36;82.73;101755.66;5032172;28;20239;-79
2021/03/03 04:55:39;;;;;;;9.83;8.47;;;;;;;3.38;83.16;101753.16;5042961;28;20234;-79
2021/03/03 04:58:05;;;;;;;9.30;8.40;;;;;;;3.45;82.90;101749.94;5055332;28;20203;-79
2021/03/03 05:00:34;;;;;;;8.80;8.00;;;;;;;3.55;82.15;101746.81;5043091;28;20203;-79
2021/03/03 05:03:00;;;;;;;11.53;8.30;;;;;;;3.58;82.31;101758.94;5015216;28;20288;-79
2021/03/03 05:05:25;;;;;;;9.70;8.80;;;;;;;3.57;82.15;101754.63;5041010;28;20215;-79
2021/03/03 05:07:51;;;;;;;9.10;8.20;;;;;;;3.63;82.43;101751.31;5044671;28;20667;-78
2021/03/03 05:10:17;;;;;;;8.97;7.80;;;;;;;3.73;81.83;101748.22;5041824;28;20227;-79
2021/03/03 05:12:44;;;;;;;14.23;9.20;;;;;;;3.74;81.75;101742.19;5052895;28;20571;-79
2021/03/03 05:15:11;;;;;;;8.97;8.13;;;;;;;3.74;81.55;101742.19;5045898;28;20201;-78
2021/03/03 05:17:37;;;;;;;8.90;7.93;;;;;;;3.74;81.07;101744.78;5051469;28;20626;-79
2021/03/03 05:20:04;;;;;;;9.27;8.33;;;;;;;3.84;80.56;101741.63;5047416;28;20233;-79
2021/03/03 05:22:30;;;;;;;9.20;7.40;;;;;;;3.88;80.16;101740.91;5037025;28;20230;-79
2021/03/03 05:24:56;;;;;;;9.07;8.17;;;;;;;3.97;79.85;101742.88;5041991;28;20249;-78
2021/03/03 05:27:22;;;;;;;13.27;11.97;;;;;;;3.85;78.94;101732.19;5042176;28;20200;-79
2021/03/03 05:29:47;;;;;;;10.60;9.50;;;;;;;3.90;78.82;101733.19;5034328;28;20242;-78
2021/03/03 05:32:13;;;;;;;9.97;8.80;;;;;;;3.90;78.82;101734.06;5061275;22;20231;-79
2021/03/03 05:34:40;;;;;;;8.90;8.10;;;;;;;3.89;78.84;101729.75;5057783;28;20211;-79
2021/03/03 05:37:06;;;;;;;10.73;9.03;;;;;;;3.87;78.55;101735.72;5051840;28;20218;-79
2021/03/03 05:39:32;;;;;;;10.10;9.13;;;;;;;3.79;77.98;101735.47;5057374;28;20691;-79
2021/03/03 05:42:01;;;;;;;12.13;10.60;;;;;;;3.71;78.39;101737.81;5057079;28;20309;-79
2021/03/03 05:44:27;;;;;;;11.53;10.30;;;;;;;3.53;78.72;101738.16;5057520;28;20299;-79
2021/03/03 05:46:54;;;;;;;9.60;8.67;;;;;;;3.41;79.46;101737.78;5055092;28;20202;-77
2021/03/03 05:49:24;;;;;;;10.90;9.77;;;;;;;3.45;78.69;101738.72;5055374;28;20204;-79
2021/03/03 05:51:52;;;;;;;11.33;10.27;;;;;;;3.50;78.69;101740.63;5055495;28;20738;-78
2021/03/03 05:54:18;;;;;;;11.27;10.17;;;;;;;3.45;78.64;101739.63;5056488;28;20197;-79
2021/03/03 05:56:47;;;;;;;10.90;9.80;;;;;;;3.41;78.61;101735.19;5056178;28;20293;-79
2021/03/03 05:59:15;;;;;;;11.43;10.33;;;;;;;3.37;78.23;101734.22;5055532;28;20676;-79
2021/03/03 06:01:43;;;;;;;10.40;9.40;;;;;;;3.43;78.85;101725.78;5055136;28;20221;-79
2021/03/03 06:04:10;;;;;;;12.37;10.10;;;;;;;3.41;78.49;101724.88;5055812;28;20226;-79
2021/03/03 06:06:40;;;;;;;9.23;8.33;;;;;;;3.43;77.85;101720.63;5055836;28;20804;-79
2021/03/03 06:09:07;;;;;;;9.50;8.53;;;;;;;3.44;78.76;101721.50;5054168;28;20202;-79
2021/03/03 06:11:33;;;;;;;9.83;8.83;;;;;;;3.48;78.45;101726.78;5055045;28;20219;-78
2021/03/03 06:14:00;;;;;;;9.40;8.40;;;;;;;3.47;79.73;101727.63;5055395;28;20200;-80
2021/03/03 06:16:26;;;;;;;10.33;8.67;;;;;;;3.53;79.53;101721.78;5055438;28;20202;-82
2021/03/03 06:18:54;;;;;;;9.60;7.97;;;;;;;3.61;79.89;101719.41;5056902;28;20205;-81
2021/03/03 06:21:28;;;;;;;10.40;9.40;;;;;;;3.64;79.08;101719.53;5058895;28;20229;-81
2021/03/03 06:24:02;;;;;;;8.07;7.27;;;;;;;3.66;78.67;101716.13;5075191;28;20232;-77
2021/03/03 06:26:29;;;;;;;8.50;7.63;;;;;;;3.63;79.00;101722.91;5075615;28;20189;-77
2021/03/03 06:28:55;;;;;;;9.73;8.73;;;;;;;3.68;78.50;101717.06;5077969;28;20197;-77
2021/03/03 06:31:27;;;;;;;9.30;8.17;;;;;;;3.74;78.38;101724.13;5076390;28;20215;-77
2021/03/03 06:33:55;;;;;;;11.37;8.77;;;;;;;3.74;78.44;101725.00;5076675;28;20186;-81
2021/03/03 06:36:26;;;;;;;9.67;8.70;;;;;;;3.78;79.57;101724.25;5078561;28;20192;-78
2021/03/03 06:38:52;;;;;;;9.73;8.20;;;;;;;3.84;79.19;101717.53;5057774;28;20195;-81
2021/03/03 06:41:19;;;;;;;8.80;7.90;;;;;;;3.80;78.35;101723.44;5055312;28;20231;-81
2021/03/03 06:43:56;;;;;;;8.13;7.43;;;;;;;3.79;78.22;101722.56;5055353;28;20217;-81
2021/03/03 06:46:22;;;;;;;16.00;10.60;;;;;;;3.77;77.94;101714.75;5053053;28;20575;-81
2021/03/03 06:48:48;;;;;;;12.37;10.97;;;;;;;3.75;78.28;101719.00;5056080;28;20224;-81
2021/03/03 06:51:22;;;;;;;11.30;10.20;;;;;;;3.76;77.95;101723.31;5055201;28;20219;-82
2021/03/03 06:53:48;;;;;;;13.97;12.67;;;;;;;3.78;78.22;101724.25;5054098;28;20204;-82
2021/03/03 06:56:30;;;;;;;16.17;14.67;;;;;;;3.71;78.81;101726.63;5054825;28;20201;-82
2021/03/03 06:59:09;;;;;;;17.90;14.50;;;;;;;3.72;79.09;101723.19;5055241;28;20675;-81
2021/03/03 07:01:35;;;;;;;15.77;13.80;;;;;;;3.75;78.68;101726.75;5051531;28;20225;-81
2021/03/03 07:04:01;;;;;;;16.33;12.73;;;;;;;3.86;79.15;101726.19;5054026;28;20224;-79
2021/03/03 07:06:32;;;;;;;13.30;12.00;;;;;;;3.96;78.49;101725.63;5055945;28;20280;-80
2021/03/03 07:08:59;;;;;;;21.33;17.37;;;;;;;3.93;78.19;101729.00;5055405;28;20619;-80
2021/03/03 07:11:27;;;;;;;114.37;67.57;;;;;;;3.97;78.22;101732.56;5056031;28;20764;-81
2021/03/03 07:13:53;;;;;;;87.20;53.47;;;;;;;4.06;77.92;101731.94;5055623;28;20204;-80
2021/03/03 07:16:20;;;;;;;18.33;16.20;;;;;;;3.99;77.15;101725.72;5053970;28;20210;-79
2021/03/03 07:18:46;;;;;;;16.20;14.70;;;;;;;4.06;77.67;101725.03;5052881;28;20211;-78
2021/03/03 07:21:12;;;;;;;13.20;12.00;;;;;;;4.09;78.28;101730.31;5051970;28;20253;-79
2021/03/03 07:23:44;;;;;;;11.40;10.30;;;;;;;4.12;77.88;101727.84;5053830;28;20595;-78
2021/03/03 07:26:11;;;;;;;12.33;11.07;;;;;;;4.12;78.68;101729.53;5052915;28;20199;-79
2021/03/03 07:28:38;;;;;;;12.80;11.53;;;;;;;3.83;80.01;101729.56;5052083;28;20216;-79
2021/03/03 07:31:04;;;;;;;12.53;11.30;;;;;;;3.88;80.36;101725.41;5052232;28;20229;-79
2021/03/03 07:33:31;;;;;;;12.90;11.70;;;;;;;3.97;80.39;101723.09;5052980;28;20719;-79
2021/03/03 07:35:59;;;;;;;12.60;11.30;;;;;;;4.07;80.18;101716.47;5053118;28;20204;-79
2021/03/03 07:38:30;;;;;;;11.97;10.87;;;;;;;4.17;80.56;101720.19;5048281;28;20660;-79
2021/03/03 07:40:57;;;;;;;12.40;11.20;;;;;;;4.25;80.68;101720.41;5053063;28;20198;-77
2021/03/03 07:43:24;;;;;;;13.17;11.67;;;;;;;4.33;80.47;101717.19;5055331;28;20238;-80
2021/03/03 07:45:51;;;;;;;15.67;12.70;;;;;;;4.42;79.77;101713.09;5055832;28;20212;-79
2021/03/03 07:48:19;;;;;;;16.43;12.80;;;;;;;4.38;78.96;101707.00;5054939;28;21564;-78
2021/03/03 07:50:48;;;;;;;54.67;32.50;;;;;;;4.40;78.93;101707.91;5053179;28;20197;-81
2021/03/03 07:53:14;;;;;;;29.33;22.70;;;;;;;4.44;79.02;101709.75;5052378;28;20653;-79
2021/03/03 07:55:41;;;;;;;16.70;14.63;;;;;;;4.57;78.98;101714.38;5056225;28;20642;-79
2021/03/03 07:58:08;;;;;;;14.93;13.10;;;;;;;4.65;78.15;101711.13;5054008;28;20882;-79
2021/03/03 08:00:37;;;;;;;15.27;13.87;;;;;;;4.74;77.94;101711.38;5054290;28;20259;-80
2021/03/03 08:03:04;;;;;;;14.53;13.13;;;;;;;4.87;77.91;101713.41;5055595;28;20221;-79
2021/03/03 08:05:34;;;;;;;17.90;13.40;;;;;;;4.97;77.95;101712.84;5056688;28;20213;-78
2021/03/03 08:08:26;;;;;;;14.87;13.37;;;;;;;5.02;77.94;101712.94;5054412;28;20203;-78
2021/03/03 08:10:53;;;;;;;15.37;13.83;;;;;;;5.13;77.96;101718.34;5039600;28;20210;-79
2021/03/03 08:13:32;;;;;;;19.33;14.07;;;;;;;5.16;77.56;101710.69;5054349;28;20201;-77
2021/03/03 08:15:59;;;;;;;15.07;13.00;;;;;;;5.21;75.98;101714.25;5055691;28;20601;-79
2021/03/03 08:18:29;;;;;;;14.53;13.03;;;;;;;5.20;76.67;101709.03;5057963;28;20198;-78
2021/03/03 08:20:56;;;;;;;15.30;13.77;;;;;;;5.19;77.25;101713.31;5053250;28;20237;-80
2021/03/03 08:23:46;;;;;;;14.80;13.00;;;;;;;5.23;78.16;101702.19;5054400;28;20254;-78
2021/03/03 08:26:33;;;;;;;19.43;14.47;;;;;;;5.33;78.33;101703.28;5049409;28;20544;-79
2021/03/03 08:29:26;;;;;;;14.93;13.50;;;;;;;5.43;77.54;101694.03;5051636;28;20785;-77
2021/03/03 08:31:52;;;;;;;14.87;13.27;;;;;;;5.46;78.88;101697.56;5047985;28;20248;-78
2021/03/03 08:34:18;;;;;;;17.80;15.27;;;;;;;5.46;80.75;101689.78;5056872;28;20196;-80
2021/03/03 08:37:01;;;;;;;15.87;14.37;;;;;;;5.44;81.57;101695.78;5054308;28;20338;-81
2021/03/03 08:39:39;;;;;;;15.87;14.33;;;;;;;5.46;81.93;101687.19;5057599;28;20726;-80
2021/03/03 08:42:26;;;;;;;16.70;14.93;;;;;;;5.54;81.66;101693.41;5052032;28;20229;-78
2021/03/03 08:45:09;;;;;;;16.57;14.93;;;;;;;5.60;81.45;101690.09;5056943;28;20720;-81
2021/03/03 08:47:57;;;;;;;14.80;13.57;;;;;;;5.74;80.04;101688.66;5052855;28;20197;-80
2021/03/03 08:53:26;;;;;;;15.80;13.13;;;;;;;6.06;78.56;101683.28;5065247;22;20228;-82
2021/03/03 08:55:55;;;;;;;14.37;12.67;;;;;;;6.30;77.84;101679.44;5048759;28;20224;-80
2021/03/03 08:58:58;;;;;;;16.50;13.27;;;;;;;6.44;77.33;101683.16;5046309;28;20203;-81
2021/03/03 09:01:52;;;;;;;15.20;13.47;;;;;;;6.64;78.40;101677.44;5042780;28;20259;-80
2021/03/03 09:04:19;;;;;;;362.07;139.33;;;;;;;6.84;78.17;101678.66;5046047;28;20226;-81
2021/03/03 09:06:46;;;;;;;40.37;25.43;;;;;;;7.07;77.79;101679.00;5040418;28;20283;-81
2021/03/03 09:09:12;;;;;;;19.67;16.50;;;;;;;7.25;77.75;101668.03;5046797;28;20208;-81
2021/03/03 09:11:39;;;;;;;16.67;15.07;;;;;;;7.45;75.71;101675.22;5040796;28;20257;-79
2021/03/03 09:14:06;;;;;;;17.20;14.07;;;;;;;7.64;75.78;101676.38;5043283;28;20231;-80
2021/03/03 09:16:32;;;;;;;14.60;13.23;;;;;;;7.74;74.99;101673.03;5044060;28;20209;-81
2021/03/03 09:19:02;;;;;;;12.87;10.87;;;;;;;7.91;73.17;101670.66;5041714;28;20205;-80
2021/03/03 09:21:29;;;;;;;13.60;10.83;;;;;;;8.03;72.78;101656.91;5035531;28;20275;-82
2021/03/03 09:24:07;;;;;;;13.37;11.13;;;;;;;8.17;71.27;101660.53;5043644;28;20218;-81
2021/03/03 09:26:33;;;;;;;12.57;11.40;;;;;;;8.31;70.15;101660.69;5042714;28;20205;-80
2021/03/03 09:28:59;;;;;;;10.57;9.53;;;;;;;8.47;66.29;101661.72;5038981;28;20217;-79
2021/03/03 09:31:30;;;;;;;12.77;10.30;;;;;;;8.61;66.24;101654.91;5050038;28;20583;-82
2021/03/03 09:33:58;;;;;;;11.23;9.90;;;;;;;8.73;67.07;101662.81;5036199;28;20198;-83
2021/03/03 09:36:25;;;;;;;13.07;9.70;;;;;;;8.82;65.96;101658.53;5044830;28;20209;-80
2021/03/03 09:38:55;;;;;;;10.30;9.30;;;;;;;8.96;65.56;101649.13;5046496;28;20197;-79
2021/03/03 09:41:24;;;;;;;10.13;9.13;;;;;;;9.06;65.76;101650.94;5045552;28;20307;-81
2021/03/03 09:44:06;;;;;;;10.87;9.73;;;;;;;9.20;63.14;101648.41;5044954;28;20216;-81
2021/03/03 09:46:55;;;;;;;9.60;8.60;;;;;;;9.38;63.18;101646.78;5038999;28;20235;-82
2021/03/03 09:49:22;;;;;;;9.50;8.53;;;;;;;9.60;59.77;101642.56;5041843;28;20198;-81
2021/03/03 09:54:54;;;;;;;10.33;8.07;;;;;;;10.14;57.64;101636.63;5038567;28;20201;-81
2021/03/03 09:57:21;;;;;;;8.73;7.87;;;;;;;10.25;56.75;101630.59;5036951;28;20202;-81
2021/03/03 09:59:50;;;;;;;9.47;8.30;;;;;;;10.30;57.37;101631.47;5042850;28;20197;-82
2021/03/03 10:02:17;;;;;;;11.57;8.70;;;;;;;10.35;56.29;101624.53;5031202;28;20679;-81
2021/03/03 10:08:26;;;;;;;11.70;8.53;;;;;;;10.51;58.44;101618.44;5037449;28;20205;-81
2021/03/03 10:10:54;;;;;;;11.50;9.17;;;;;;;10.55;57.27;101619.31;5045927;28;20206;-82
2021/03/03 10:13:45;;;;;;;13.17;9.27;;;;;;;10.62;56.75;101618.44;5041049;28;20573;-82
2021/03/03 10:16:16;;;;;;;11.07;8.53;;;;;;;10.73;57.07;101616.69;5038676;28;20259;-79
2021/03/03 10:18:57;;;;;;;10.07;8.93;;;;;;;10.91;56.69;101609.72;5045555;28;20202;-81
2021/03/03 10:21:23;;;;;;;10.57;9.53;;;;;;;11.03;56.67;101617.53;5045057;28;20671;-81
2021/03/03 10:23:49;;;;;;;9.80;8.90;;;;;;;11.16;55.36;101621.00;5044104;28;20221;-80
2021/03/03 10:26:15;;;;;;;9.97;8.97;;;;;;;11.34;55.67;101607.00;5041776;28;20209;-81
2021/03/03 10:28:41;;;;;;;11.10;8.80;;;;;;;11.41;53.61;101616.56;5039533;28;20195;-79
2021/03/03 10:31:08;;;;;;;12.50;9.73;;;;;;;11.53;54.24;101607.78;5039047;28;20230;-79
2021/03/03 10:33:37;;;;;;;11.63;9.83;;;;;;;11.57;53.05;101611.28;5037488;28;20195;-80
2021/03/03 10:36:05;;;;;;;14.47;9.60;;;;;;;11.60;52.98;101608.66;5039651;28;20202;-79
2021/03/03 10:38:33;;;;;;;10.60;9.40;;;;;;;11.67;53.04;101598.16;5040577;28;20209;-79
2021/03/03 10:41:01;;;;;;;12.17;9.93;;;;;;;11.73;51.77;101598.13;5040301;28;20198;-79
2021/03/03 10:43:28;;;;;;;13.43;10.50;;;;;;;11.85;52.16;101598.94;5045870;28;20290;-79
2021/03/03 10:46:11;;;;;;;11.23;9.73;;;;;;;12.04;51.85;101599.72;5043125;28;20201;-78
2021/03/03 10:48:38;;;;;;;14.10;10.03;;;;;;;12.03;49.97;101593.63;5037425;28;20206;-78
2021/03/03 10:51:05;;;;;;;11.03;9.90;;;;;;;12.12;49.85;101596.19;5036658;28;20254;-79
2021/03/03 10:53:44;;;;;;;14.40;9.87;;;;;;;12.13;50.00;101597.06;5037639;28;20198;-78
2021/03/03 10:56:18;;;;;;;11.20;10.00;;;;;;;12.09;50.08;101590.09;5036868;28;20205;-79
2021/03/03 10:58:44;;;;;;;12.70;10.57;;;;;;;12.15;50.53;101590.06;5040115;28;20215;-79
2021/03/03 11:01:10;;;;;;;13.23;10.60;;;;;;;12.25;52.09;101589.13;5035961;28;20268;-78
2021/03/03 11:03:51;;;;;;;13.80;11.23;;;;;;;12.25;49.32;101589.13;5043710;28;20225;-79
2021/03/03 11:06:17;;;;;;;11.47;10.07;;;;;;;12.27;48.76;101589.13;5038222;28;20273;-80
2021/03/03 11:08:43;;;;;;;17.63;10.50;;;;;;;12.29;50.74;101584.75;5034795;28;20207;-78
2021/03/03 11:11:09;;;;;;;13.67;9.93;;;;;;;12.47;52.07;101578.47;5035224;28;20647;-79
2021/03/03 11:13:36;;;;;;;17.80;11.20;;;;;;;12.67;51.11;101575.69;5041880;28;20902;-79
2021/03/03 11:16:03;;;;;;;17.87;10.97;;;;;;;12.76;49.44;101570.34;5036172;28;20210;-80
2021/03/03 11:18:29;;;;;;;13.70;10.93;;;;;;;12.94;49.47;101573.66;5038704;28;20438;-80
2021/03/03 11:20:56;;;;;;;14.43;10.73;;;;;;;13.02;49.95;101570.09;5038798;28;20204;-77
2021/03/03 11:23:22;;;;;;;11.80;10.57;;;;;;;13.10;48.95;101564.72;5040147;28;20221;-78
2021/03/03 11:25:48;;;;;;;14.80;10.50;;;;;;;13.32;51.75;101557.53;5041087;28;20230;-77
2021/03/03 11:28:14;;;;;;;14.30;10.23;;;;;;;13.25;51.37;101564.56;5041424;28;20742;-78
2021/03/03 11:30:40;;;;;;;12.53;10.20;;;;;;;13.23;49.21;101555.00;5044041;28;20201;-77
2021/03/03 11:33:06;;;;;;;18.43;11.17;;;;;;;13.43;52.18;101552.16;5040542;28;20201;-77
2021/03/03 11:35:33;;;;;;;12.23;10.80;;;;;;;13.35;50.37;101546.13;5045866;28;20198;-80
2021/03/03 11:37:59;;;;;;;12.97;11.60;;;;;;;13.18;48.17;101541.94;5044446;28;20233;-79
2021/03/03 11:40:25;;;;;;;14.00;10.97;;;;;;;13.27;48.71;101541.81;5048023;28;20222;-79